createdAt,value
2022-11-09T00:01:28.993Z,95614.47
2022-11-09T00:06:32.037Z,95616.41
2022-11-09T00:11:33.686Z,95619.56
2022-11-09T00:16:35.327Z,95620.34
2022-11-09T00:21:36.864Z,95620.34
2022-11-09T00:26:38.337Z,95613.38
2022-11-09T00:31:39.857Z,95609.84
2022-11-09T00:36:42.194Z,95610.63
2022-11-09T00:41:43.741Z,95605.19
2022-11-09T00:46:45.435Z,95607.94
2022-11-09T00:51:47.016Z,95605.97
2022-11-09T00:56:48.814Z,95606.38
2022-11-09T01:01:50.462Z,95598.59
2022-11-09T01:06:53.324Z,95565.41
2022-11-09T01:11:55.010Z,95550.59
2022-11-09T01:16:57.356Z,95555.66
2022-11-09T01:22:00.966Z,95571.28
2022-11-09T01:27:03.339Z,95590.81
2022-11-09T01:32:05.441Z,95589.63
2022-11-09T01:37:07.013Z,95579.47
2022-11-09T01:42:08.550Z,95592.75
2022-11-09T01:47:24.239Z,95590.41
2022-11-09T01:52:32.088Z,95577.94
2022-11-09T01:57:38.303Z,95572.88
2022-11-09T02:02:44.771Z,95579.88
2022-11-09T02:07:46.692Z,95579.50
2022-11-09T02:12:48.936Z,95572.88
2022-11-09T02:17:53.545Z,95572.09
2022-11-09T02:22:56.391Z,95566.25
2022-11-09T02:27:57.970Z,95564.28
2022-11-09T02:32:59.569Z,95561.16
2022-11-09T02:38:01.718Z,95565.06
2022-11-09T02:43:07.358Z,95574.03
2022-11-09T02:48:09.005Z,95574.81
2022-11-09T02:53:12.085Z,95576.78
2022-11-09T02:58:17.867Z,95567.03
2022-11-09T03:03:19.850Z,95560.41
2022-11-09T03:08:21.890Z,95561.97
2022-11-09T03:13:26.060Z,95566.66
2022-11-09T03:18:27.923Z,95565.88
2022-11-09T03:23:29.659Z,95573.28
2022-11-09T03:28:32.023Z,95579.13
2022-11-09T03:33:33.954Z,95574.44
2022-11-09T03:38:35.873Z,95579.13
2022-11-09T03:43:38.128Z,95574.84
2022-11-09T03:48:39.701Z,95572.88
2022-11-09T03:53:41.214Z,95584.59
2022-11-09T03:58:42.742Z,95587.72
2022-11-09T04:03:44.258Z,95579.53
2022-11-09T04:08:50.959Z,95586.94
2022-11-09T04:13:53.917Z,95577.19
2022-11-09T04:18:55.391Z,95579.53
2022-11-09T04:23:56.908Z,95568.22
2022-11-09T04:28:58.365Z,95560.81
2022-11-09T04:34:00.026Z,95556.94
2022-11-09T04:39:01.665Z,95547.56
2022-11-09T04:44:04.005Z,95549.13
2022-11-09T04:49:05.558Z,95546.81
2022-11-09T04:54:07.189Z,95553.03
2022-11-09T04:59:08.797Z,95566.31
2022-11-09T05:04:10.426Z,95572.53
2022-11-09T05:09:12.131Z,95576.81
2022-11-09T05:14:13.796Z,95577.22
2022-11-09T05:19:15.345Z,95585.00
2022-11-09T05:24:16.897Z,95587.72
2022-11-09T05:29:18.369Z,95581.88
2022-11-09T05:34:19.881Z,95585.03
2022-11-09T05:39:21.379Z,95582.66
2022-11-09T05:44:22.934Z,95585.41
2022-11-09T05:49:24.706Z,95586.56
2022-11-09T05:54:26.249Z,95587.34
2022-11-09T05:59:27.746Z,95601.38
2022-11-09T06:04:29.314Z,95610.34
2022-11-09T06:09:30.868Z,95615.78
2022-11-09T06:14:32.367Z,95613.44
2022-11-09T06:19:33.920Z,95605.66
2022-11-09T06:24:35.504Z,95617.34
2022-11-09T06:29:37.072Z,95625.13
2022-11-09T06:34:38.552Z,95629.78
2022-11-09T06:39:40.094Z,95637.19
2022-11-09T06:44:41.579Z,95661.34
2022-11-09T06:49:43.139Z,95671.84
2022-11-09T06:54:44.721Z,95671.06
2022-11-09T06:59:46.260Z,95676.88
2022-11-09T07:04:51.424Z,95701.03
2022-11-09T07:09:52.966Z,95706.91
2022-11-09T07:14:54.455Z,95700.63
2022-11-09T07:19:55.945Z,95712.34
2022-11-09T07:24:57.445Z,95720.91
2022-11-09T07:29:58.934Z,95713.91
2022-11-09T07:35:00.486Z,95719.38
2022-11-09T07:40:02.178Z,95722.50
2022-11-09T07:45:04.097Z,95724.09
2022-11-09T07:50:06.094Z,95723.31
2022-11-09T07:55:08.107Z,95728.41
2022-11-09T08:00:11.115Z,95729.97
2022-11-09T08:05:15.648Z,95724.50
2022-11-09T08:10:17.275Z,95728.81
2022-11-09T08:15:18.806Z,95729.22
2022-11-09T08:20:20.394Z,95731.16
2022-11-09T08:25:22.190Z,95735.47
2022-11-09T08:30:24.643Z,95734.31
2022-11-09T08:35:26.774Z,95733.94
2022-11-09T08:40:28.904Z,95740.56
2022-11-09T08:45:33.116Z,95736.28
2022-11-09T08:50:37.736Z,95731.22
2022-11-09T08:55:39.299Z,95725.75
2022-11-09T09:00:40.858Z,95730.06
2022-11-09T09:05:42.366Z,95740.56
2022-11-09T09:10:43.898Z,95742.91
2022-11-09T09:15:45.429Z,95739.81
2022-11-09T09:20:46.945Z,95741.75
2022-11-09T09:25:48.448Z,95745.66
2022-11-09T09:30:51.153Z,95758.16
2022-11-09T09:35:55.631Z,95754.25
2022-11-09T09:40:59.606Z,95754.25
2022-11-09T09:46:05.070Z,95760.88
2022-11-09T09:51:18.744Z,95764.44
2022-11-09T09:56:28.484Z,95763.63
2022-11-09T10:01:42.042Z,95763.25
2022-11-09T10:06:59.690Z,95771.44
2022-11-09T10:12:20.475Z,95760.50
2022-11-09T10:18:04.865Z,95753.88
2022-11-09T10:23:24.794Z,95746.84
2022-11-09T10:28:42.328Z,95736.69
2022-11-09T10:34:00.222Z,95727.69
2022-11-09T10:39:01.919Z,95716.34
2022-11-09T10:44:21.768Z,95725.69
2022-11-09T10:49:42.948Z,95712.00
2022-11-09T10:55:24.306Z,95714.34
2022-11-09T11:01:24.675Z,95698.28
2022-11-09T11:06:44.620Z,95701.38
2022-11-09T11:12:17.410Z,95694.31
2022-11-09T11:17:37.932Z,95681.78
2022-11-09T11:23:16.574Z,95681.75
2022-11-09T11:28:49.227Z,95691.56
2022-11-09T11:34:32.019Z,95688.78
2022-11-09T11:40:07.771Z,95680.94
2022-11-09T11:45:42.421Z,95674.28
2022-11-09T11:51:08.727Z,95678.97
2022-11-09T11:56:36.297Z,95663.31
2022-11-09T12:02:15.320Z,95657.38
2022-11-09T12:08:06.234Z,95654.59
2022-11-09T12:13:54.183Z,95658.06
2022-11-09T12:19:36.150Z,95661.97
2022-11-09T12:25:15.027Z,95654.91
2022-11-09T12:30:52.909Z,95641.59
2022-11-09T12:36:41.490Z,95633.75
2022-11-09T12:42:11.244Z,95631.78
2022-11-09T12:47:40.239Z,95622.34
2022-11-09T12:53:03.531Z,95618.75
2022-11-09T12:58:35.060Z,95619.91
2022-11-09T13:03:58.473Z,95619.88
2022-11-09T13:09:24.437Z,95620.28
2022-11-09T13:14:45.578Z,95627.66
2022-11-09T13:20:53.887Z,95626.41
2022-11-09T13:26:46.604Z,95624.44
2022-11-09T13:32:12.530Z,95632.56
2022-11-09T13:37:41.916Z,95628.16
2022-11-09T13:43:07.993Z,95630.81
2022-11-09T13:48:36.245Z,95639.31
2022-11-09T13:53:56.607Z,95652.53
2022-11-09T13:59:23.335Z,95658.31
2022-11-09T14:04:44.273Z,95657.44
2022-11-09T14:10:31.734Z,95663.72
2022-11-09T14:16:03.101Z,95660.88
2022-11-09T14:22:01.937Z,95662.03
2022-11-09T14:27:23.456Z,95648.72
2022-11-09T14:32:48.811Z,95652.66
2022-11-09T14:38:24.874Z,95657.41
2022-11-09T14:43:45.048Z,95661.78
2022-11-09T14:49:05.052Z,95656.00
2022-11-09T14:54:27.042Z,95665.44
2022-11-09T14:59:47.957Z,95663.97
2022-11-09T15:05:41.217Z,95664.81
2022-11-09T15:11:01.261Z,95666.84
2022-11-09T15:16:24.434Z,95672.81
2022-11-09T15:21:44.631Z,95680.31
2022-11-09T15:27:34.877Z,95693.28
2022-11-09T15:32:55.090Z,95691.41
2022-11-09T15:38:34.242Z,95689.84
2022-11-09T15:43:54.418Z,95687.94
2022-11-09T15:49:24.834Z,95684.88
2022-11-09T15:54:46.915Z,95695.88
2022-11-09T16:00:14.406Z,95693.97
2022-11-09T16:05:38.033Z,95705.75
2022-11-09T16:10:58.106Z,95705.78
2022-11-09T16:16:18.539Z,95712.41
2022-11-09T16:21:38.819Z,95706.97
2022-11-09T16:26:58.858Z,95713.25
2022-11-09T16:32:19.028Z,95723.03
2022-11-09T16:37:40.474Z,95727.72
2022-11-09T16:43:00.660Z,95737.13
2022-11-09T16:48:21.127Z,95742.22
2022-11-09T16:53:41.337Z,95755.94
2022-11-09T16:59:01.671Z,95752.84
2022-11-09T17:04:22.429Z,95751.31
2022-11-09T17:09:42.511Z,95766.94
2022-11-09T17:15:02.933Z,95765.38
2022-11-09T17:20:24.038Z,95774.41
2022-11-09T17:25:55.909Z,95779.09
2022-11-09T17:31:18.662Z,95774.41
2022-11-09T17:42:18.531Z,95789.66
2022-11-09T17:47:38.707Z,95796.31
2022-11-09T17:52:58.732Z,95789.31
2022-11-09T17:58:19.284Z,95802.19
2022-11-09T18:03:39.797Z,95790.06
2022-11-09T18:09:34.314Z,95793.59
2022-11-09T18:14:40.013Z,95793.19
2022-11-09T18:20:00.305Z,95803.75
2022-11-09T18:25:21.569Z,95801.81
2022-11-09T18:30:41.939Z,95824.88
2022-11-09T18:36:05.318Z,95813.94
2022-11-09T18:41:26.309Z,95832.31
2022-11-09T18:46:47.185Z,95816.69
2022-11-09T18:52:07.154Z,95824.09
2022-11-09T18:57:27.347Z,95814.72
2022-11-09T19:02:47.680Z,95811.63
2022-11-09T19:08:08.590Z,95820.59
2022-11-09T19:13:28.556Z,95841.31
2022-11-09T19:18:49.106Z,95838.56
2022-11-09T19:24:13.414Z,95831.53
2022-11-09T19:29:33.795Z,95834.69
2022-11-09T19:34:54.108Z,95829.22
2022-11-09T19:40:14.465Z,95853.41
2022-11-09T19:45:42.692Z,95854.19
2022-11-09T19:51:04.443Z,95862.41
2022-11-09T19:56:26.749Z,95875.69
2022-11-09T20:01:46.761Z,95870.22
2022-11-09T20:07:06.877Z,95878.03
2022-11-09T20:12:45.801Z,95884.28
2022-11-09T20:18:06.409Z,95888.56
2022-11-09T20:23:27.800Z,95896.38
2022-11-09T20:28:48.327Z,95898.34
2022-11-09T20:34:08.778Z,95913.56
2022-11-09T20:39:29.285Z,95922.16
2022-11-09T20:44:52.150Z,95917.06
2022-11-09T20:50:12.817Z,95917.47
2022-11-09T20:55:36.488Z,95921.78
2022-11-09T21:01:04.489Z,95930.34
2022-11-09T21:06:24.584Z,95937.78
2022-11-09T21:12:03.699Z,95945.22
2022-11-09T21:17:23.969Z,95946.38
2022-11-09T21:23:02.714Z,95941.31
2022-11-09T21:28:42.406Z,95958.91
2022-11-09T21:34:02.872Z,95963.19
2022-11-09T21:39:23.557Z,95969.81
2022-11-09T21:44:43.863Z,95958.88
2022-11-09T21:50:08.235Z,95958.50
2022-11-09T21:55:31.578Z,95965.53
2022-11-09T22:00:52.010Z,95962.00
2022-11-09T22:06:14.258Z,95960.84
2022-11-09T22:11:53.069Z,95963.56
2022-11-09T22:17:13.651Z,95972.19
2022-11-09T22:22:34.313Z,95960.84
2022-11-09T22:27:55.534Z,95971.78
2022-11-09T22:33:20.709Z,95973.72
2022-11-09T22:38:43.729Z,95978.44
2022-11-09T22:44:04.231Z,95987.41
2022-11-09T22:49:24.683Z,95985.09
2022-11-09T22:54:45.008Z,95996.03
2022-11-09T23:00:06.122Z,95997.94
2022-11-09T23:05:26.523Z,96006.97
2022-11-09T23:10:54.942Z,96014.78
2022-11-09T23:16:15.096Z,96020.25
2022-11-09T23:21:37.286Z,96022.19
2022-11-09T23:26:57.758Z,96021.81
2022-11-09T23:32:17.857Z,96026.09
2022-11-09T23:37:38.111Z,96038.59
2022-11-09T23:43:05.343Z,96045.63
2022-11-09T23:48:25.620Z,96044.06
2022-11-09T23:53:45.868Z,96055.03
2022-11-09T23:59:05.957Z,96055.78
